Terminal Aerodrome Forecast
Issued by NWS

Home | Current Version | Previous Version | Text Only | Print | Product List | Glossary On
Versions: 1 2 3 4 5 6 7 8 9 10 11 12 13 14 15 16 17 18 19 20 21 22 23 24
000
FTUS41 KBOX 240539
TAFFMH
TAF
KFMH 240539Z 2406/2506 13004KT 1/4SM FG OVC002
     FM240700 17006KT P6SM BKN100
     FM241000 15012G21KT 5SM -RA OVC060
     FM241200 16017G35KT 2SM RA BR OVC015 WS020/17050KT
     FM241500 17024G38KT P6SM OVC010 WS020/19055KT
     FM250100 21018G35KT P6SM BKN010 WS020/22050KT
     FM250500 22014G26KT P6SM BKN010 WS020/23045KT=

USA.gov is the U.S. government's official web portal to all federal, state and local government web resources and services.